Hovedside
METAR-TAF:

METAR-TAF

Lufthavner :

Waterford, Irland

breddegrad: 52-11-14N, lengdegrad: 7-05-13W, høyde over havet: 36 m

Gjeldene værobservasjon

Denne rapporten ble laget for 17 minutter siden, klokken 16:30 UTC
Vind 12 kt fra Sør, skiftende mellom Sør-sørøst og Sørvest
Temperatur 16°C
Luftfuktighet 88%
Trykk 1018 hPa
Sikt 10 km eller mer
Få skyer i en høyde av 4300 ft

METAR: EIWF 171630Z 19012KT 160V220 9999 FEW043 16/14 Q1018

Tid: 17:47 (16:47 UTC)

Varsel

Denne rapporten ble laget for 2 timer og 47 minutter siden, klokken 14:00 UTC
Varsel gyldig fra 17. klokken 15 UTC til 17. klokken 24 UTC
Vind 10 kt fra Sør-sørvest
Sikt 10 km eller mer
Spredte skyer i en høyde av 1200 ft
Spredte skyer i en høyde av 4000 ft

TAF: EIWF 171400Z 1715/1724 21010KT 9999 SCT012 SCT040

Værobservasjoner og værvarsel for over 4000 flyplasser (METAR- og TAF-rapporter).

Tilgjengelige stasjoner er representert av de røde og gule prikkene på kartet.

Hold musepekeren over prikken for å se navnet på stasjonen.

Klikk så for å se værobservasjoner og -varsler.

For å forandre kartet kan du klikke på den grønne knappen med svart kryss for å zoome inn, på den grønne knappen med strek for å zoome ut, eller på de grønne pilene for å se tilstøtende kart.


METAR-TAF: